Worcester, MA

3:28 PM EDT on July 29, 2016 (GMT -0400)
Elm Park | | Change Station

Elev 509 ft 42.27 °N, 71.81 °W | Updated 5 seconds ago

Partly Cloudy
Partly Cloudy
88.9 °F
Feels Like 91 °F
N
0.0
Wind Variable Wind from NE
Gusts 0.0 mph

Today
High -- | Low -- °F
--% Chance of Precip.
Yesterday
High -- | Low -- °F
Precip. -- in
Pressure 29.85 in
Visibility 10.0 miles
Clouds Few 3400 ft
Heat Index 91 °F
Dew Point 65 °F
Humidity 45%
Rainfall 0.40 in
Snow Depth Not available.
5:37 AM 8:09 PM
Waning Crescent, 19% visible
METAR KORH 291854Z VRB06KT 10SM FEW034 28/17 A2987 RMK AO2 SLP106 T02780167
Pressure 29.85 in
Visibility 10.0 miles
Clouds Few 3400 ft
Heat Index 91 °F
Dew Point 65 °F
Humidity 45%
Rainfall 0.40 in
Snow Depth Not available.
5:37 AM 8:09 PM
Waning Crescent, 19% visible
METAR KORH 291854Z VRB06KT 10SM FEW034 28/17 A2987 RMK AO2 SLP106 T02780167

10-Day Weather Forecast

Almanac

Astronomy

Jul. 29, 2016 Rise Set
Actual Time
Civil Twilight
Nautical Twilight
Astronomical Twilight
Moon
Length of Visible Light
Length of Day
Tomorrow will be .
, % of the Moon is Illuminated

Today's Extremes

State Highs State Lows

Community

WunderPhotos

Upload Photos

1,928,399 photos uploaded!

WunderBlog® & News

Nearby

Air Quality

  Air Quality AQ Index Pollutant
Not available.

Snow Depth

Station Depth Elevation

Earthquake Activity

City Distance Mag. Time & Date
Minimum magnitude displayed is 2.5.

Coastal Water Temperatures

Place Temperature

Stations

Nearby Weather Stations

Station Location Temp. Windchill Dew Point Humidity Wind Precip. Elev Updated Type
                   

Watches & Warnings

There are currently no watches in effect.